Time;durP1;ratioP1;P1;durP2;ratioP2;P2;SDS_P1;SDS_P2;PMS_P1;PMS_P2;Temp;Humidity;BMP_temperature;BMP_pressure;BME280_temperature;BME280_humidity;BME280_pressure;Samples;Min_cycle;Max_cycle;Signal;HPM_P1;HPM_P2
2021/10/01 00:02:22;;;;;;;7.28;2.25;;;;;;;12.58;66.25;101738.31;5033454;28;20476;-46
2021/10/01 00:04:48;;;;;;;7.55;2.40;;;;;;;12.54;66.83;101742.22;5033482;28;20021;-43
2021/10/01 00:07:14;;;;;;;8.85;2.03;;;;;;;12.58;66.43;101733.13;5033047;28;20055;-43
2021/10/01 00:09:40;;;;;;;5.50;2.10;;;;;;;12.54;66.38;101724.06;5033351;28;20100;-42
2021/10/01 00:12:06;;;;;;;9.88;2.17;;;;;;;12.57;66.09;101735.88;5033309;28;20027;-43
2021/10/01 00:14:33;;;;;;;8.88;2.50;;;;;;;12.54;66.44;101741.41;5033182;28;20125;-43
2021/10/01 00:16:58;;;;;;;5.68;2.08;;;;;;;12.56;66.41;101726.50;5033771;28;20057;-43
2021/10/01 00:19:23;;;;;;;6.88;2.08;;;;;;;12.58;66.09;101725.34;5031821;28;20453;-42
2021/10/01 00:21:50;;;;;;;9.35;2.42;;;;;;;12.57;67.22;101721.16;5035590;28;20025;-43
2021/10/01 00:24:16;;;;;;;6.20;1.90;;;;;;;12.60;66.91;101720.78;5039756;28;20057;-43
2021/10/01 00:26:42;;;;;;;6.47;2.00;;;;;;;12.57;67.00;101713.38;5039656;28;20052;-42
2021/10/01 00:29:09;;;;;;;7.10;2.00;;;;;;;12.58;66.12;101716.75;5039575;28;20488;-43
2021/10/01 00:31:35;;;;;;;8.65;2.17;;;;;;;12.67;66.81;101717.50;5039652;28;20026;-42
2021/10/01 00:34:01;;;;;;;6.40;2.20;;;;;;;12.68;66.03;101695.75;5039411;28;20083;-43
2021/10/01 00:36:29;;;;;;;6.50;2.13;;;;;;;12.73;66.29;101704.59;5039156;28;20053;-42
2021/10/01 00:38:57;;;;;;;7.32;2.10;;;;;;;12.78;65.79;101696.31;5039479;28;20053;-42
2021/10/01 00:41:23;;;;;;;9.70;2.33;;;;;;;12.74;65.65;101695.84;5039186;28;20037;-43
2021/10/01 00:43:48;;;;;;;6.22;2.00;;;;;;;12.77;65.96;101685.09;5039255;28;20079;-43
2021/10/01 00:46:13;;;;;;;5.80;1.98;;;;;;;12.79;65.87;101675.34;5039270;28;20109;-43
2021/10/01 00:48:38;;;;;;;5.30;1.80;;;;;;;12.74;66.17;101675.09;5039475;28;20018;-43
2021/10/01 00:51:05;;;;;;;5.13;1.70;;;;;;;12.83;66.52;101666.25;5039170;28;20029;-43
2021/10/01 00:53:31;;;;;;;7.43;2.33;;;;;;;12.84;66.58;101672.22;5039130;28;20029;-42
2021/10/01 00:55:57;;;;;;;6.93;2.00;;;;;;;12.83;65.71;101673.19;5039079;28;20025;-42
2021/10/01 00:58:22;;;;;;;4.88;1.90;;;;;;;12.78;65.40;101671.16;5039098;28;20479;-42
2021/10/01 01:03:24;;;;;;;8.23;2.20;;;;;;;12.79;65.68;101659.00;5039420;28;20032;-45
2021/10/01 01:06:02;;;;;;;6.15;1.73;;;;;;;12.81;65.84;101667.41;5039035;28;20125;-44
2021/10/01 01:08:36;;;;;;;8.90;2.17;;;;;;;12.77;66.29;101666.13;5039084;28;20056;-43
2021/10/01 01:11:14;;;;;;;13.95;2.20;;;;;;;12.81;66.19;101677.78;5037703;28;20427;-43
2021/10/01 01:13:48;;;;;;;10.68;2.53;;;;;;;12.77;66.05;101664.34;5038949;28;20025;-43
2021/10/01 01:16:20;;;;;;;4.85;1.60;;;;;;;12.81;66.88;101678.59;5039262;28;20486;-44
2021/10/01 01:18:48;;;;;;;5.72;1.83;;;;;;;12.74;66.33;101672.50;5038915;28;20380;-43
2021/10/01 01:21:41;;;;;;;9.45;2.00;;;;;;;12.65;66.60;101666.59;5039078;28;20048;-42
2021/10/01 01:24:25;;;;;;;7.13;1.90;;;;;;;12.70;66.60;101667.84;5038952;28;20068;-43
2021/10/01 01:27:10;;;;;;;5.55;1.80;;;;;;;12.68;67.49;101662.84;5039164;28;20025;-43
2021/10/01 01:30:02;;;;;;;8.35;1.80;;;;;;;12.60;68.00;101658.56;5039152;28;20032;-43
2021/10/01 01:32:30;;;;;;;5.33;2.20;;;;;;;12.47;70.04;101658.38;5038818;28;20036;-42
2021/10/01 01:35:02;;;;;;;4.95;1.90;;;;;;;12.37;70.93;101655.22;5034679;28;20698;-42
2021/10/01 01:37:44;;;;;;;10.20;1.90;;;;;;;12.33;71.54;101656.56;5035561;28;20049;-42
2021/10/01 01:40:11;;;;;;;7.00;1.70;;;;;;;12.27;70.80;101657.28;5034448;28;20044;-42
2021/10/01 01:42:39;;;;;;;4.60;1.75;;;;;;;12.25;71.40;101643.69;5035603;28;20044;-42
2021/10/01 01:45:06;;;;;;;7.60;2.15;;;;;;;12.25;71.91;101635.91;5035664;28;20060;-42
2021/10/01 01:47:33;;;;;;;5.68;1.92;;;;;;;12.13;71.62;101640.72;5035681;28;20083;-42
2021/10/01 01:50:00;;;;;;;9.30;1.85;;;;;;;12.11;72.71;101635.72;5035616;28;20032;-42
2021/10/01 01:52:26;;;;;;;6.80;2.42;;;;;;;12.12;72.35;101641.69;5035770;28;20022;-42
2021/10/01 01:54:53;;;;;;;7.43;1.90;;;;;;;12.11;72.39;101629.72;5035465;28;20104;-43
2021/10/01 01:57:23;;;;;;;7.32;2.03;;;;;;;12.16;72.03;101635.19;5034104;28;20049;-43
2021/10/01 01:59:49;;;;;;;9.77;1.98;;;;;;;12.13;72.41;101623.38;5035437;28;20021;-43
2021/10/01 02:02:16;;;;;;;5.85;2.10;;;;;;;12.08;72.27;101624.88;5035417;28;20471;-42
2021/10/01 02:04:43;;;;;;;5.10;1.83;;;;;;;12.07;72.12;101621.50;5035473;28;20052;-42
2021/10/01 02:07:10;;;;;;;7.80;2.28;;;;;;;12.10;72.39;101610.78;5035509;28;20069;-42
2021/10/01 02:09:36;;;;;;;4.35;1.60;;;;;;;12.09;71.82;101614.34;5035476;28;20025;-43
2021/10/01 02:12:02;;;;;;;9.32;1.80;;;;;;;12.14;71.41;101613.81;5035617;28;20503;-42
2021/10/01 02:14:32;;;;;;;6.28;1.90;;;;;;;12.13;71.42;101601.84;5035865;28;20029;-43
2021/10/01 02:16:59;;;;;;;9.18;1.92;;;;;;;12.14;71.25;101603.44;5035290;28;20040;-42
2021/10/01 02:19:29;;;;;;;5.15;1.98;;;;;;;12.12;71.09;101600.25;5034052;28;20025;-43
2021/10/01 02:21:54;;;;;;;7.07;2.10;;;;;;;12.09;70.92;101585.84;5034069;28;20503;-42
2021/10/01 02:24:23;;;;;;;10.80;2.13;;;;;;;12.12;70.76;101577.72;5035219;28;20022;-42
2021/10/01 02:26:59;;;;;;;9.10;2.50;;;;;;;12.07;70.71;101581.81;5035445;28;20021;-42
2021/10/01 02:29:36;;;;;;;9.32;2.20;;;;;;;12.08;70.14;101571.28;5035402;28;20067;-43
2021/10/01 02:32:17;;;;;;;5.22;1.77;;;;;;;12.16;70.75;101575.59;5035678;28;20026;-43
2021/10/01 02:34:45;;;;;;;6.55;2.10;;;;;;;12.15;70.57;101574.78;5035354;28;20464;-43
2021/10/01 02:37:11;;;;;;;3.95;1.50;;;;;;;12.10;70.19;101569.31;5034682;28;20049;-43
2021/10/01 02:39:39;;;;;;;5.90;1.63;;;;;;;12.10;70.26;101561.53;5033891;28;20037;-43
2021/10/01 02:42:06;;;;;;;7.55;1.90;;;;;;;12.19;69.93;101559.69;5034943;28;20021;-42
2021/10/01 02:44:32;;;;;;;5.95;1.90;;;;;;;12.13;69.83;101550.81;5033344;28;20026;-43
2021/10/01 02:46:58;;;;;;;5.95;2.20;;;;;;;12.18;69.75;101551.09;5034730;28;20075;-42
2021/10/01 02:49:23;;;;;;;7.22;1.80;;;;;;;12.15;70.00;101543.69;5034966;28;20079;-42
2021/10/01 02:51:52;;;;;;;4.97;1.58;;;;;;;12.13;69.74;101537.06;5034744;28;20021;-43
2021/10/01 02:54:23;;;;;;;4.53;1.80;;;;;;;12.11;69.86;101532.09;5034897;28;20025;-42
2021/10/01 02:56:59;;;;;;;8.98;1.85;;;;;;;12.13;69.86;101531.88;5033373;28;20030;-42
2021/10/01 02:59:28;;;;;;;6.20;1.77;;;;;;;12.14;69.16;101529.13;5034482;28;20036;-42
2021/10/01 03:01:55;;;;;;;13.38;1.92;;;;;;;12.10;69.38;101529.66;5034408;28;20028;-42
2021/10/01 03:04:24;;;;;;;5.72;2.10;;;;;;;12.12;69.67;101518.13;5034471;28;20022;-43
2021/10/01 03:06:51;;;;;;;6.38;1.80;;;;;;;12.16;69.40;101523.75;5034628;28;20116;-43
2021/10/01 03:09:20;;;;;;;6.35;1.70;;;;;;;12.13;69.23;101509.38;5034236;28;20021;-43
2021/10/01 03:11:47;;;;;;;7.45;2.05;;;;;;;12.17;69.29;101509.84;5033020;28;20021;-42
2021/10/01 03:14:15;;;;;;;6.75;1.75;;;;;;;12.10;69.53;101509.72;5034573;28;20104;-42
2021/10/01 03:16:41;;;;;;;4.50;1.60;;;;;;;12.06;69.31;101507.69;5034252;28;20022;-43
2021/10/01 03:19:06;;;;;;;7.75;1.83;;;;;;;12.01;69.20;101499.66;5034135;28;20052;-42
2021/10/01 03:21:34;;;;;;;6.82;1.60;;;;;;;11.99;69.40;101499.81;5034385;28;20104;-43
2021/10/01 03:24:00;;;;;;;8.63;2.00;;;;;;;11.98;69.60;101497.41;5034909;28;20021;-43
2021/10/01 03:26:26;;;;;;;3.10;1.75;;;;;;;11.94;70.04;101502.16;5034564;28;20022;-43
2021/10/01 03:28:52;;;;;;;4.57;1.33;;;;;;;11.99;69.68;101496.41;5034175;28;20021;-43
2021/10/01 03:31:17;;;;;;;4.97;1.58;;;;;;;11.98;69.85;101489.66;5033916;28;20056;-42
2021/10/01 03:33:47;;;;;;;6.60;1.73;;;;;;;11.89;70.34;101487.13;5033872;28;20036;-44
2021/10/01 03:36:12;;;;;;;6.05;1.70;;;;;;;11.92;69.95;101488.56;5033865;28;20160;-43
2021/10/01 03:38:38;;;;;;;9.65;1.70;;;;;;;11.88;69.78;101488.13;5034312;28;20104;-43
2021/10/01 03:41:04;;;;;;;4.90;1.75;;;;;;;11.83;70.38;101494.78;5032637;28;20029;-44
2021/10/01 03:43:30;;;;;;;6.13;1.90;;;;;;;11.85;70.29;101479.84;5033759;28;20025;-42
2021/10/01 03:45:59;;;;;;;5.50;1.50;;;;;;;11.88;69.69;101479.53;5033702;28;20033;-42
2021/10/01 03:48:26;;;;;;;6.97;2.10;;;;;;;11.85;69.98;101475.50;5033673;28;20053;-43
2021/10/01 03:50:51;;;;;;;11.23;2.08;;;;;;;11.85;70.26;101482.44;5034335;28;20025;-43
2021/10/01 03:53:17;;;;;;;8.15;1.52;;;;;;;11.81;70.54;101479.41;5033564;28;20025;-43
2021/10/01 03:55:42;;;;;;;4.00;1.58;;;;;;;11.83;70.15;101467.09;5033417;28;20112;-43
2021/10/01 03:58:08;;;;;;;7.30;1.58;;;;;;;11.85;70.02;101456.56;5032959;28;20025;-42
2021/10/01 04:00:33;;;;;;;4.03;1.50;;;;;;;11.81;70.33;101455.31;5033746;28;20052;-42
2021/10/01 04:02:58;;;;;;;5.85;1.75;;;;;;;11.78;70.19;101448.69;5033422;28;20018;-43
2021/10/01 04:05:24;;;;;;;3.83;1.60;;;;;;;11.78;70.29;101443.53;5033476;28;20025;-43
2021/10/01 04:07:50;;;;;;;7.05;1.70;;;;;;;11.76;70.61;101453.25;5033717;28;20053;-43
2021/10/01 04:10:15;;;;;;;8.75;1.70;;;;;;;11.72;70.88;101444.25;5033399;28;20385;-43
2021/10/01 04:12:40;;;;;;;9.45;2.10;;;;;;;11.71;70.51;101450.41;5033356;28;20033;-42
2021/10/01 04:15:07;;;;;;;11.30;1.90;;;;;;;11.67;70.89;101438.78;5033536;28;20033;-43
2021/10/01 04:17:33;;;;;;;5.68;1.77;;;;;;;11.69;70.67;101449.78;5033545;28;20082;-44
2021/10/01 04:19:58;;;;;;;6.70;1.88;;;;;;;11.67;71.16;101436.19;5033145;28;20104;-42
2021/10/01 04:22:24;;;;;;;5.43;1.90;;;;;;;11.69;70.93;101442.81;5033242;28;20060;-42
2021/10/01 04:24:49;;;;;;;5.57;2.03;;;;;;;11.67;70.82;101436.19;5033229;28;20476;-42
2021/10/01 04:27:15;;;;;;;5.85;1.80;;;;;;;11.74;71.01;101440.50;5033175;28;20542;-42
2021/10/01 04:29:42;;;;;;;8.88;2.08;;;;;;;11.73;70.93;101449.22;5033220;28;20032;-43
2021/10/01 04:32:07;;;;;;;7.82;1.83;;;;;;;11.78;70.77;101448.69;5033370;28;20379;-43
2021/10/01 04:34:38;;;;;;;7.43;1.70;;;;;;;11.83;70.63;101448.19;5033109;28;20025;-44
2021/10/01 04:37:03;;;;;;;7.72;1.75;;;;;;;11.85;70.62;101456.56;5033217;28;20058;-43
2021/10/01 04:39:29;;;;;;;9.00;1.90;;;;;;;11.83;70.53;101450.78;5033507;28;20137;-43
2021/10/01 04:41:54;;;;;;;8.35;1.90;;;;;;;11.87;70.08;101455.44;5033051;28;20056;-43
2021/10/01 04:44:19;;;;;;;5.90;1.80;;;;;;;11.91;69.99;101454.09;5033018;28;20029;-43
2021/10/01 04:46:45;;;;;;;3.53;1.50;;;;;;;11.89;70.31;101461.25;5033242;28;20027;-41
2021/10/01 04:49:12;;;;;;;7.18;2.10;;;;;;;11.89;70.52;101463.03;5032946;28;20021;-42
2021/10/01 04:51:37;;;;;;;5.97;1.60;;;;;;;11.82;70.50;101441.38;5032997;28;20040;-49
2021/10/01 04:54:02;;;;;;;9.23;1.75;;;;;;;11.77;70.26;101436.75;5032975;28;20476;-42
2021/10/01 04:56:28;;;;;;;9.07;1.50;;;;;;;11.81;70.26;101437.97;5032263;28;20021;-43
2021/10/01 04:58:53;;;;;;;6.97;2.08;;;;;;;11.89;69.95;101424.97;5033114;28;20022;-42
2021/10/01 05:01:18;;;;;;;8.43;1.80;;;;;;;11.87;70.36;101431.31;5032856;28;20030;-43
2021/10/01 05:03:44;;;;;;;4.95;1.67;;;;;;;11.97;70.24;101434.44;5032867;28;20025;-42
2021/10/01 05:06:09;;;;;;;5.47;1.67;;;;;;;11.89;70.12;101437.13;5033598;28;20033;-43
2021/10/01 05:08:34;;;;;;;7.90;1.58;;;;;;;11.94;69.99;101427.03;5034935;28;20018;-42
2021/10/01 05:10:59;;;;;;;6.95;1.80;;;;;;;11.93;70.11;101428.81;5036493;28;20102;-42
2021/10/01 05:13:25;;;;;;;5.43;1.67;;;;;;;11.95;69.80;101436.41;5036788;28;20021;-43
2021/10/01 05:15:50;;;;;;;3.80;1.55;;;;;;;11.99;69.51;101429.88;5036504;28;20457;-42
2021/10/01 05:18:16;;;;;;;4.95;1.60;;;;;;;11.96;69.50;101430.25;5036378;28;20099;-42
2021/10/01 05:20:42;;;;;;;6.13;1.45;;;;;;;12.03;69.37;101435.53;5036682;28;20464;-43
2021/10/01 05:23:07;;;;;;;8.70;1.75;;;;;;;12.05;69.52;101423.97;5035669;28;20022;-42
2021/10/01 05:25:33;;;;;;;7.72;1.50;;;;;;;12.02;69.30;101428.72;5035326;28;20463;-42
2021/10/01 05:27:58;;;;;;;4.32;1.40;;;;;;;12.03;69.50;101428.53;5036370;28;20056;-43
2021/10/01 05:30:24;;;;;;;5.38;1.60;;;;;;;11.96;69.43;101432.81;5036199;28;20021;-43
2021/10/01 05:32:49;;;;;;;5.00;1.45;;;;;;;11.95;69.52;101436.41;5036181;28;20124;-43
2021/10/01 05:35:15;;;;;;;2.60;1.50;;;;;;;11.87;69.74;101431.31;5036036;28;20021;-42
2021/10/01 05:37:40;;;;;;;6.38;1.67;;;;;;;11.91;69.67;101433.38;5035727;28;20457;-42
2021/10/01 05:40:06;;;;;;;5.85;1.45;;;;;;;11.92;69.34;101434.97;5036112;28;20369;-42
2021/10/01 05:42:32;;;;;;;8.30;1.70;;;;;;;11.96;69.46;101433.63;5035746;28;20029;-42
2021/10/01 05:44:57;;;;;;;8.20;1.70;;;;;;;11.92;69.66;101437.56;5034511;28;20528;-42
2021/10/01 05:47:22;;;;;;;10.00;1.60;;;;;;;12.00;69.08;101433.25;5035717;28;20079;-43
2021/10/01 05:49:48;;;;;;;5.65;1.30;;;;;;;11.98;69.32;101430.06;5035744;28;20029;-42
2021/10/01 05:54:46;;;;;;;3.60;1.47;;;;;;;12.03;69.55;101430.34;5036429;28;20083;-43
2021/10/01 05:57:12;;;;;;;6.38;1.35;;;;;;;11.96;69.60;101436.22;5035558;28;20136;-42
2021/10/01 05:59:38;;;;;;;4.43;1.35;;;;;;;12.00;69.33;101439.28;5035545;28;20075;-43
2021/10/01 06:02:05;;;;;;;6.13;1.60;;;;;;;11.99;69.18;101423.91;5035490;28;20033;-43
2021/10/01 06:04:30;;;;;;;7.78;1.60;;;;;;;12.02;68.93;101428.72;5035558;28;20037;-41
2021/10/01 06:06:56;;;;;;;6.25;1.77;;;;;;;12.00;69.25;101415.13;5035472;28;20026;-42
2021/10/01 06:09:22;;;;;;;6.43;1.52;;;;;;;12.02;68.91;101411.38;5035291;28;20032;-42
2021/10/01 06:11:49;;;;;;;7.43;1.80;;;;;;;12.03;68.91;101410.41;5035457;28;20068;-42
2021/10/01 06:14:20;;;;;;;10.23;1.48;;;;;;;11.98;68.96;101397.19;5035484;28;20088;-43
2021/10/01 06:16:45;;;;;;;4.47;1.40;;;;;;;12.06;69.17;101404.88;5033807;28;20456;-42
2021/10/01 06:19:10;;;;;;;5.15;1.67;;;;;;;12.05;68.90;101408.44;5034378;28;20021;-42
2021/10/01 06:21:35;;;;;;;6.68;1.63;;;;;;;12.09;68.59;101407.09;5033758;28;20600;-42
2021/10/01 06:24:01;;;;;;;6.38;1.60;;;;;;;12.15;68.36;101405.56;5036025;28;20029;-41
2021/10/01 06:26:27;;;;;;;5.88;1.70;;;;;;;12.21;68.74;101410.03;5035228;28;20053;-42
2021/10/01 06:28:52;;;;;;;9.43;1.70;;;;;;;12.16;68.37;101404.56;5033710;28;20026;-43
2021/10/01 06:31:18;;;;;;;5.55;1.40;;;;;;;12.37;68.13;101406.38;5034972;28;20375;-50
2021/10/01 06:33:43;;;;;;;5.03;1.42;;;;;;;12.31;68.42;101407.13;5033644;28;20029;-43
2021/10/01 06:36:08;;;;;;;7.20;1.42;;;;;;;12.28;68.23;101408.28;5034745;28;20021;-43
2021/10/01 06:38:34;;;;;;;4.93;1.52;;;;;;;12.27;67.94;101404.09;5035032;28;20023;-43
2021/10/01 06:41:00;;;;;;;6.53;1.48;;;;;;;12.44;67.61;101401.31;5034824;28;20040;-43
2021/10/01 06:43:27;;;;;;;5.50;1.40;;;;;;;12.39;67.80;101405.22;5034774;28;20029;-43
2021/10/01 06:45:55;;;;;;;9.90;1.60;;;;;;;12.32;67.51;101409.56;5034719;28;20120;-44
2021/10/01 06:48:28;;;;;;;5.43;1.33;;;;;;;12.35;68.10;101398.00;5034936;28;20468;-43
2021/10/01 08:18:21;;;;;;;7.32;1.60;;;;;;;14.08;63.58;101374.06;5034701;28;20408;-43
2021/10/01 08:21:46;;;;;;;5.03;1.90;;;;;;;14.02;64.43;101389.66;5033591;28;20056;-42
2021/10/01 08:24:13;;;;;;;7.30;1.60;;;;;;;13.96;64.40;101373.03;5033192;28;20440;-42
2021/10/01 08:26:39;;;;;;;10.40;1.80;;;;;;;13.98;64.50;101382.25;5033527;28;20025;-42
2021/10/01 08:29:04;;;;;;;8.48;1.92;;;;;;;14.07;64.43;101380.28;5031939;28;20029;-43
2021/10/01 08:31:30;;;;;;;4.05;1.40;;;;;;;14.41;63.93;101391.53;5033185;28;20024;-43
2021/10/01 08:33:56;;;;;;;6.57;1.95;;;;;;;14.11;64.51;101376.28;5033665;28;20105;-43
2021/10/01 08:36:21;;;;;;;4.78;1.58;;;;;;;14.33;64.10;101376.94;5032912;28;20120;-43
2021/10/01 08:38:47;;;;;;;9.77;1.65;;;;;;;14.47;63.62;101387.34;5033049;28;20028;-43
2021/10/01 08:41:14;;;;;;;7.10;1.60;;;;;;;14.26;64.48;101380.50;5033006;28;20021;-44
2021/10/01 08:43:44;;;;;;;5.13;1.35;;;;;;;14.56;64.01;101374.00;5035486;28;20035;-43
2021/10/01 08:46:10;;;;;;;4.80;1.90;;;;;;;14.29;64.51;101373.13;5035699;28;20025;-43
2021/10/01 08:48:37;;;;;;;7.75;1.80;;;;;;;14.68;63.58;101371.63;5037155;28;20094;-42
2021/10/01 08:51:07;;;;;;;8.63;1.60;;;;;;;14.66;63.74;101368.41;5036924;28;20029;-43
2021/10/01 08:53:33;;;;;;;4.10;1.70;;;;;;;14.71;63.15;101368.63;5036863;28;20033;-42
2021/10/01 08:55:59;;;;;;;6.13;1.80;;;;;;;14.54;63.70;101367.41;5036795;28;20056;-43
2021/10/01 08:58:27;;;;;;;6.35;1.60;;;;;;;15.25;61.62;101353.75;5037194;28;20104;-42
2021/10/01 09:00:53;;;;;;;7.35;1.80;;;;;;;14.71;63.63;101360.00;5036927;28;20048;-43
2021/10/01 09:03:18;;;;;;;4.65;1.70;;;;;;;14.75;63.25;101358.59;5036686;28;20036;-43
2021/10/01 09:05:44;;;;;;;9.77;1.85;;;;;;;15.19;62.20;101355.38;5036915;28;20033;-43
2021/10/01 09:08:16;;;;;;;7.20;1.73;;;;;;;15.28;61.95;101359.34;5036754;28;20022;-43
2021/10/01 09:10:54;;;;;;;4.75;1.67;;;;;;;17.24;55.71;101349.97;5036632;28;20427;-43
2021/10/01 09:13:21;;;;;;;9.65;1.45;;;;;;;16.61;57.35;101358.72;5036385;28;20041;-42
2021/10/01 09:15:46;;;;;;;8.70;1.70;;;;;;;17.91;54.08;101360.47;5036803;28;20417;-42
2021/10/01 09:18:12;;;;;;;7.97;1.60;;;;;;;17.08;56.09;101348.69;5036332;28;20318;-43
2021/10/01 09:20:37;;;;;;;5.03;1.58;;;;;;;16.60;57.07;101349.31;5036300;28;20029;-43
2021/10/01 09:23:17;;;;;;;8.23;1.60;;;;;;;17.05;55.80;101349.13;5036263;28;20025;-43
2021/10/01 09:25:44;;;;;;;6.00;1.52;;;;;;;18.35;53.35;101352.41;5036734;28;20022;-43
2021/10/01 09:28:12;;;;;;;6.13;1.67;;;;;;;15.85;60.00;101353.56;5036221;28;20037;-43
2021/10/01 09:30:46;;;;;;;9.70;1.50;;;;;;;15.41;61.58;101337.69;5036120;28;20036;-42
2021/10/01 09:33:14;;;;;;;4.78;1.50;;;;;;;15.92;60.63;101334.31;5036078;28;20026;-42
2021/10/01 09:35:44;;;;;;;12.20;1.80;;;;;;;15.88;60.82;101330.53;5036296;28;20037;-43
2021/10/01 09:38:18;;;;;;;8.88;2.13;;;;;;;15.48;62.53;101341.09;5034570;28;20053;-42
2021/10/01 09:40:46;;;;;;;5.03;1.42;;;;;;;17.25;56.97;101327.25;5036526;28;20032;-42
2021/10/01 09:43:28;;;;;;;5.90;1.50;;;;;;;17.05;57.02;101315.19;5035820;28;20022;-42
2021/10/01 09:46:09;;;;;;;7.60;1.75;;;;;;;16.60;59.09;101317.19;5035872;28;20025;-44
2021/10/01 09:48:38;;;;;;;9.43;1.98;;;;;;;16.99;57.79;101315.28;5036090;28;20128;-42
2021/10/01 09:51:21;;;;;;;6.53;1.67;;;;;;;16.60;59.95;101319.78;5035924;28;20032;-42
2021/10/01 09:53:49;;;;;;;4.45;1.60;;;;;;;16.05;60.92;101314.38;5035524;28;20025;-42
2021/10/01 09:56:31;;;;;;;5.90;1.40;;;;;;;15.73;62.44;101307.31;5035068;28;20465;-43
2021/10/01 09:59:07;;;;;;;6.57;1.45;;;;;;;15.59;63.00;101310.97;5035753;28;20657;-43
2021/10/01 10:01:34;;;;;;;5.82;2.00;;;;;;;15.17;64.02;101310.50;5035838;28;20104;-43
2021/10/01 10:04:18;;;;;;;6.75;1.77;;;;;;;15.39;63.94;101305.03;5035819;28;20520;-42
2021/10/01 10:06:45;;;;;;;5.15;1.73;;;;;;;16.22;61.61;101318.06;5035746;28;20369;-42
2021/10/01 10:09:10;;;;;;;5.75;1.45;;;;;;;15.84;62.89;101318.91;5035605;28;20041;-42
2021/10/01 10:11:41;;;;;;;7.03;1.58;;;;;;;15.56;63.35;101308.78;5035884;28;20444;-42
2021/10/01 10:14:13;;;;;;;5.75;1.70;;;;;;;15.31;64.61;101299.06;5035591;28;20468;-42
2021/10/01 10:16:39;;;;;;;7.15;1.50;;;;;;;15.17;65.09;101307.91;5036161;28;20504;-42
2021/10/01 10:19:07;;;;;;;9.20;1.50;;;;;;;15.29;65.00;101303.66;5035060;28;20029;-42
2021/10/01 10:21:34;;;;;;;8.38;1.92;;;;;;;15.30;65.59;101301.84;5035169;28;20021;-42
2021/10/01 10:24:00;;;;;;;8.98;1.70;;;;;;;15.31;65.84;101303.47;5035222;28;20034;-42
2021/10/01 10:26:26;;;;;;;6.13;1.83;;;;;;;15.16;65.75;101308.09;5035062;28;20033;-42
2021/10/01 10:29:04;;;;;;;7.28;1.45;;;;;;;14.80;66.96;101302.38;5034962;28;20060;-43
2021/10/01 10:31:35;;;;;;;4.15;1.60;;;;;;;14.86;67.54;101305.97;5036049;28;20472;-42
2021/10/01 10:34:01;;;;;;;7.80;1.90;;;;;;;14.55;68.22;101320.38;5035536;28;20021;-43
2021/10/01 10:36:26;;;;;;;11.25;2.13;;;;;;;14.62;67.92;101317.78;5034776;28;20401;-43
2021/10/01 10:38:53;;;;;;;8.20;1.77;;;;;;;14.45;68.96;101327.75;5035318;28;20030;-43
2021/10/01 10:41:26;;;;;;;5.90;1.80;;;;;;;14.31;71.28;101320.94;5034687;28;20032;-43
2021/10/01 10:43:52;;;;;;;7.13;1.85;;;;;;;13.99;73.13;101333.66;5035302;28;20044;-42
2021/10/01 10:46:36;;;;;;;4.82;1.70;;;;;;;13.74;75.77;101330.78;5035256;28;20029;-42
2021/10/01 10:49:22;;;;;;;8.25;1.70;;;;;;;13.76;75.16;101324.41;5034534;28;20025;-42
2021/10/01 10:52:14;;;;;;;5.75;1.88;;;;;;;13.59;76.51;101350.91;5034570;28;20025;-42
2021/10/01 10:54:48;;;;;;;4.13;1.77;;;;;;;13.61;77.20;101318.56;5034822;28;20388;-43
2021/10/01 10:57:16;;;;;;;10.35;1.92;;;;;;;13.55;77.10;101327.09;5034522;28;20033;-42
2021/10/01 10:59:50;;;;;;;8.45;1.90;;;;;;;13.52;77.19;101317.09;5034531;28;20091;-41
2021/10/01 11:02:44;;;;;;;10.75;2.35;;;;;;;13.71;77.22;101316.38;5034842;28;20029;-42
2021/10/01 11:05:26;;;;;;;12.00;2.17;;;;;;;13.57;77.95;101332.09;5034260;28;20064;-42
2021/10/01 11:07:54;;;;;;;8.98;2.13;;;;;;;13.66;76.63;101317.97;5034527;28;20017;-42
2021/10/01 11:10:40;;;;;;;6.35;2.08;;;;;;;13.44;78.26;101310.28;5034496;28;20469;-42
2021/10/01 11:13:23;;;;;;;5.30;1.80;;;;;;;13.54;78.34;101304.72;5034025;28;20029;-43
2021/10/01 11:16:11;;;;;;;9.48;2.35;;;;;;;13.70;77.07;101306.22;5034387;28;20033;-43
2021/10/01 11:18:45;;;;;;;8.50;1.98;;;;;;;13.65;78.58;101293.78;5034327;28;20030;-44
2021/10/01 11:24:06;;;;;;;11.57;2.30;;;;;;;13.76;77.29;101297.63;5034859;28;20176;-42
2021/10/01 11:26:45;;;;;;;8.25;2.40;;;;;;;13.68;78.65;101300.41;5034153;28;20483;-43
2021/10/01 11:29:24;;;;;;;6.38;2.90;;;;;;;13.86;78.96;101307.63;5034393;28;20017;-42
2021/10/01 11:31:54;;;;;;;7.57;2.30;;;;;;;13.95;78.95;101296.91;5034123;28;20411;-42
2021/10/01 11:34:38;;;;;;;5.25;2.30;;;;;;;13.92;78.31;101281.66;5033743;28;20112;-42
2021/10/01 11:37:18;;;;;;;9.15;2.30;;;;;;;13.99;77.99;101290.28;5033864;28;20125;-43
2021/10/01 11:39:43;;;;;;;6.90;2.10;;;;;;;14.18;78.67;101277.53;5033683;28;20128;-43
2021/10/01 11:42:09;;;;;;;5.00;2.22;;;;;;;13.88;79.04;101279.69;5033700;28;20056;-43
2021/10/01 11:44:34;;;;;;;8.48;2.10;;;;;;;14.00;77.98;101278.91;5033688;28;20025;-43
2021/10/01 11:47:06;;;;;;;9.43;2.78;;;;;;;14.13;79.12;101270.34;5033816;28;20105;-43
2021/10/01 11:49:32;;;;;;;7.82;2.50;;;;;;;14.18;79.03;101267.13;5033669;28;20014;-42
2021/10/01 11:52:05;;;;;;;7.22;2.28;;;;;;;14.25;78.29;101265.34;5033801;28;20022;-43
2021/10/01 11:54:30;;;;;;;8.23;2.30;;;;;;;14.35;78.44;101257.94;5033556;28;20068;-43
2021/10/01 11:57:03;;;;;;;7.20;1.95;;;;;;;14.35;77.61;101260.53;5033840;28;20021;-44
2021/10/01 11:59:57;;;;;;;9.73;2.10;;;;;;;14.43;77.43;101268.13;5033579;28;20039;-43
2021/10/01 12:02:34;;;;;;;8.27;2.15;;;;;;;14.55;76.13;101263.16;5033665;28;20355;-42
2021/10/01 12:05:35;;;;;;;7.95;2.13;;;;;;;14.61;75.93;101257.16;5033761;28;20083;-43
2021/10/01 12:08:11;;;;;;;6.43;1.80;;;;;;;14.58;75.29;101267.97;5033417;28;20026;-42
2021/10/01 12:10:40;;;;;;;9.18;2.22;;;;;;;14.63;77.37;101269.97;5033389;28;20029;-43
2021/10/01 12:13:08;;;;;;;9.80;2.33;;;;;;;14.39;78.68;101258.34;5033537;28;20409;-42
2021/10/01 12:15:48;;;;;;;5.97;1.98;;;;;;;14.33;77.88;101265.16;5033481;28;20033;-43
2021/10/01 12:18:28;;;;;;;6.93;2.10;;;;;;;14.39;77.52;101272.16;5032795;28;20032;-44
2021/10/01 12:20:55;;;;;;;6.88;2.00;;;;;;;14.52;76.98;101266.16;5032013;28;20168;-42
2021/10/01 12:23:26;;;;;;;9.77;2.22;;;;;;;14.58;76.97;101267.97;5031991;28;20491;-43
2021/10/01 12:25:53;;;;;;;6.53;2.03;;;;;;;14.61;75.37;101256.34;5033175;28;20017;-42
2021/10/01 12:28:20;;;;;;;10.82;1.95;;;;;;;14.68;75.27;101261.56;5031732;28;20017;-42
2021/10/01 12:30:57;;;;;;;7.25;1.90;;;;;;;14.63;75.79;101256.97;5033066;28;20033;-43
2021/10/01 12:33:23;;;;;;;5.75;1.88;;;;;;;14.62;75.61;101257.97;5033353;28;20108;-43
2021/10/01 12:35:49;;;;;;;11.73;2.28;;;;;;;14.74;75.57;101264.16;5033788;28;20117;-44
2021/10/01 12:38:14;;;;;;;8.38;1.83;;;;;;;14.63;74.58;101257.75;5032795;28;20119;-43
2021/10/01 12:40:39;;;;;;;10.45;2.10;;;;;;;14.74;74.42;101263.34;5032968;28;20029;-43
2021/10/01 12:43:04;;;;;;;8.32;2.13;;;;;;;14.80;75.04;101247.72;5032215;28;20033;-43
2021/10/01 12:45:30;;;;;;;6.75;1.90;;;;;;;14.83;75.07;101244.72;5033163;28;20515;-43
2021/10/01 12:47:55;;;;;;;5.95;1.83;;;;;;;14.96;74.27;101237.88;5032859;28;20022;-43
2021/10/01 12:50:29;;;;;;;9.65;2.00;;;;;;;15.06;74.30;101233.06;5033804;28;20106;-43
2021/10/01 12:52:57;;;;;;;10.85;2.20;;;;;;;15.17;73.06;101248.03;5032820;28;20485;-42
2021/10/01 12:55:23;;;;;;;4.60;1.55;;;;;;;15.37;73.15;101244.56;5032849;28;20087;-44
2021/10/01 12:57:50;;;;;;;7.57;2.20;;;;;;;15.21;74.21;101248.41;5032917;28;20104;-43
2021/10/01 13:00:24;;;;;;;5.95;1.70;;;;;;;15.37;74.63;101249.78;5032665;28;20028;-43
2021/10/01 13:02:59;;;;;;;5.88;1.80;;;;;;;15.07;74.31;101245.06;5032796;28;20084;-44
2021/10/01 13:05:26;;;;;;;7.05;1.77;;;;;;;15.29;73.99;101250.78;5032792;28;20108;-43
2021/10/01 13:07:52;;;;;;;7.07;2.05;;;;;;;15.23;74.03;101246.41;5033020;28;20027;-43
2021/10/01 13:10:23;;;;;;;9.10;2.38;;;;;;;14.97;75.79;101258.50;5033115;28;20108;-42